Time;durP1;ratioP1;P1;durP2;ratioP2;P2;SDS_P1;SDS_P2;PMS_P1;PMS_P2;Temp;Humidity;BMP_temperature;BMP_pressure;BME280_temperature;BME280_humidity;BME280_pressure;Samples;Min_cycle;Max_cycle;Signal;HPM_P1;HPM_P2
2022/10/08 00:00:44;;;;;;;5.50;4.43;;;;;;;14.62;63.88;95375.25;5091463;28;20197;-78
2022/10/08 00:03:11;;;;;;;6.60;4.83;;;;;;;14.58;64.10;95376.50;5090721;28;20238;-79
2022/10/08 00:05:37;;;;;;;7.00;4.70;;;;;;;14.59;64.15;95372.97;5098939;28;20185;-79
2022/10/08 00:08:04;;;;;;;8.97;5.50;;;;;;;14.55;64.19;95372.47;5110825;28;20185;-77
2022/10/08 00:10:33;;;;;;;6.70;5.20;;;;;;;14.55;64.15;95372.47;5110799;28;20246;-77
2022/10/08 00:13:00;;;;;;;7.67;5.00;;;;;;;14.54;64.14;95369.06;5110614;28;20177;-79
2022/10/08 00:15:27;;;;;;;6.67;5.57;;;;;;;14.52;64.42;95365.03;5095366;28;20189;-79
2022/10/08 00:17:55;;;;;;;6.10;5.10;;;;;;;14.50;64.16;95361.75;5091034;28;20306;-78
2022/10/08 00:20:22;;;;;;;8.70;4.97;;;;;;;14.50;64.24;95359.19;5090631;28;20196;-78
2022/10/08 00:22:49;;;;;;;10.90;5.60;;;;;;;14.45;64.24;95351.88;5090428;28;20197;-77
2022/10/08 00:25:16;;;;;;;6.73;5.43;;;;;;;14.47;64.44;95362.84;5090557;28;20217;-77
2022/10/08 00:27:44;;;;;;;8.67;4.80;;;;;;;14.44;64.22;95357.19;5090079;28;20204;-78
2022/10/08 00:30:12;;;;;;;6.10;4.70;;;;;;;14.44;64.33;95357.19;5105594;28;20197;-79
2022/10/08 00:32:39;;;;;;;8.17;4.90;;;;;;;14.42;64.66;95356.50;5111048;28;20233;-78
2022/10/08 00:35:06;;;;;;;6.30;4.77;;;;;;;14.41;64.48;95354.88;5110656;28;20177;-77
2022/10/08 00:37:33;;;;;;;6.27;5.03;;;;;;;14.39;64.53;95344.75;5110445;28;20193;-77
2022/10/08 00:40:00;;;;;;;8.07;4.87;;;;;;;14.38;64.43;95350.03;5110215;28;20583;-77
2022/10/08 00:42:28;;;;;;;5.80;5.03;;;;;;;14.37;64.56;95348.41;5110415;28;20584;-77
2022/10/08 00:45:00;;;;;;;9.63;5.87;;;;;;;14.35;64.42;95342.63;5110157;28;20196;-77
2022/10/08 00:47:40;;;;;;;7.93;5.80;;;;;;;14.34;64.79;95339.22;5110350;28;20181;-76
2022/10/08 00:50:12;;;;;;;8.73;4.80;;;;;;;14.33;64.71;95342.75;5110693;28;20180;-78
2022/10/08 00:52:43;;;;;;;5.70;4.90;;;;;;;14.29;64.39;95331.94;5110525;28;20227;-76
2022/10/08 00:55:14;;;;;;;5.77;4.77;;;;;;;14.27;64.76;95331.28;5110678;28;20192;-77
2022/10/08 00:57:42;;;;;;;10.10;5.37;;;;;;;14.28;64.91;95326.94;5110616;28;20192;-77
2022/10/08 01:00:14;;;;;;;6.13;4.67;;;;;;;14.27;64.86;95330.47;5109731;28;20234;-77
2022/10/08 01:02:41;;;;;;;6.97;5.27;;;;;;;14.26;64.81;95334.00;5110665;28;20193;-78
2022/10/08 01:05:09;;;;;;;7.67;5.00;;;;;;;14.25;64.81;95329.81;5092410;28;20186;-78
2022/10/08 01:07:47;;;;;;;5.73;4.70;;;;;;;14.23;64.97;95331.72;5090614;28;20204;-76
2022/10/08 01:10:26;;;;;;;6.70;4.93;;;;;;;14.21;64.84;95321.56;5098364;28;20200;-77
2022/10/08 01:13:13;;;;;;;7.47;4.90;;;;;;;14.20;65.13;95314.78;5108003;28;20205;-78
2022/10/08 01:15:49;;;;;;;9.50;5.33;;;;;;;14.17;64.89;95309.13;5112346;28;20177;-77
2022/10/08 01:18:23;;;;;;;11.83;5.23;;;;;;;14.17;64.97;95309.13;5110360;28;20735;-78
2022/10/08 01:21:02;;;;;;;7.17;5.27;;;;;;;14.16;65.00;95307.50;5111324;28;20180;-77
2022/10/08 01:23:59;;;;;;;6.07;4.87;;;;;;;14.08;65.25;95297.97;5109657;28;20592;-78
2022/10/08 01:26:42;;;;;;;9.77;5.37;;;;;;;14.12;65.11;95301.84;5109223;28;20189;-77
2022/10/08 01:29:16;;;;;;;5.80;4.60;;;;;;;14.10;65.05;95300.38;5110344;28;20185;-78
2022/10/08 01:31:46;;;;;;;9.10;5.27;;;;;;;14.10;65.16;95295.22;5112846;28;20571;-78
2022/10/08 01:34:20;;;;;;;6.27;4.70;;;;;;;14.08;65.12;95292.81;5115309;28;20181;-77
2022/10/08 01:36:51;;;;;;;8.97;5.10;;;;;;;14.03;65.11;95284.69;5112889;28;20192;-76
2022/10/08 01:39:19;;;;;;;6.30;4.67;;;;;;;14.06;65.26;95292.13;5094111;28;20676;-77
2022/10/08 01:41:52;;;;;;;5.57;4.53;;;;;;;14.04;65.27;95284.56;5093729;28;20285;-78
2022/10/08 01:44:26;;;;;;;5.57;4.97;;;;;;;14.02;65.49;95281.31;5093743;28;20192;-77
2022/10/08 01:46:57;;;;;;;6.07;5.10;;;;;;;14.02;65.29;95283.09;5093813;28;20182;-77
2022/10/08 01:49:27;;;;;;;8.47;5.10;;;;;;;13.98;65.06;95277.41;5093927;28;20276;-77
2022/10/08 01:52:00;;;;;;;9.93;5.07;;;;;;;14.00;65.36;95280.66;5093469;28;20210;-78
2022/10/08 01:54:30;;;;;;;6.10;4.77;;;;;;;13.99;65.45;95285.97;5093496;28;20270;-77
2022/10/08 01:57:02;;;;;;;6.67;5.10;;;;;;;13.87;65.41;95272.47;5093294;28;20186;-77
2022/10/08 01:59:37;;;;;;;5.60;4.63;;;;;;;13.95;65.72;95287.19;5092921;28;20213;-76
2022/10/08 02:02:09;;;;;;;4.87;4.20;;;;;;;13.95;65.44;95282.88;5093700;28;20192;-78
2022/10/08 02:04:36;;;;;;;5.20;4.50;;;;;;;13.92;65.43;95279.75;5092887;28;20189;-77
2022/10/08 02:07:07;;;;;;;7.37;4.60;;;;;;;13.93;65.58;95291.66;5093335;28;20185;-77
2022/10/08 02:09:37;;;;;;;6.37;4.40;;;;;;;13.87;65.52;95280.19;5109239;28;20189;-77
2022/10/08 02:12:05;;;;;;;5.53;4.23;;;;;;;13.88;65.31;95289.53;5097186;28;20210;-76
2022/10/08 02:14:35;;;;;;;5.73;4.47;;;;;;;13.85;65.36;95289.00;5092795;28;20198;-76
2022/10/08 02:17:11;;;;;;;5.83;4.73;;;;;;;13.86;65.52;95283.72;5093198;28;20201;-78
2022/10/08 02:19:51;;;;;;;5.20;4.10;;;;;;;13.86;65.48;95291.44;5092573;28;20200;-77
2022/10/08 02:22:21;;;;;;;7.00;3.50;;;;;;;13.86;65.60;95290.59;5093171;28;20197;-77
2022/10/08 02:24:53;;;;;;;7.77;4.53;;;;;;;13.83;65.77;95286.56;5092556;28;20228;-77
2022/10/08 02:27:28;;;;;;;8.13;4.90;;;;;;;13.83;65.77;95285.78;5112879;28;20197;-77
2022/10/08 02:30:06;;;;;;;6.83;4.60;;;;;;;13.78;65.63;95284.44;5112424;28;20200;-77
2022/10/08 02:32:38;;;;;;;9.47;4.43;;;;;;;13.81;65.73;95285.91;5112786;28;20229;-76
2022/10/08 02:35:13;;;;;;;7.17;4.37;;;;;;;13.76;65.64;95281.19;5112811;28;20189;-76
2022/10/08 02:37:45;;;;;;;5.90;4.53;;;;;;;13.77;65.71;95290.53;5113009;28;20196;-77
2022/10/08 02:40:16;;;;;;;5.17;4.43;;;;;;;13.66;65.74;95271.91;5111140;28;20224;-78
2022/10/08 02:42:52;;;;;;;5.77;4.93;;;;;;;13.76;65.80;95288.09;5111568;28;20299;-78
2022/10/08 02:45:25;;;;;;;4.40;3.83;;;;;;;13.74;65.69;95284.88;5105022;28;20207;-78
2022/10/08 02:48:00;;;;;;;4.83;4.20;;;;;;;13.73;65.93;95286.63;5093145;28;20198;-77
2022/10/08 02:50:30;;;;;;;5.53;4.53;;;;;;;13.70;65.75;95278.38;5092342;28;20193;-76
2022/10/08 02:52:58;;;;;;;5.70;4.50;;;;;;;13.70;65.92;95286.91;5100223;28;20227;-77
2022/10/08 02:55:33;;;;;;;5.83;4.37;;;;;;;13.70;65.74;95278.38;5108235;28;20639;-78
2022/10/08 02:58:04;;;;;;;6.33;4.83;;;;;;;13.67;65.72;95278.66;5092145;28;20189;-77
2022/10/08 03:00:37;;;;;;;7.23;4.40;;;;;;;13.60;65.86;95270.72;5091769;28;20665;-78
2022/10/08 03:03:09;;;;;;;5.10;3.87;;;;;;;13.49;65.92;95258.03;5092306;28;20269;-77
2022/10/08 03:05:38;;;;;;;7.10;4.50;;;;;;;13.66;65.94;95289.91;5092188;28;20204;-77
2022/10/08 03:08:07;;;;;;;6.10;4.20;;;;;;;13.65;65.88;95286.53;5092275;28;20193;-78
2022/10/08 03:10:38;;;;;;;5.07;4.13;;;;;;;13.63;65.75;95280.69;5096798;28;20190;-79
2022/10/08 03:13:05;;;;;;;5.23;3.53;;;;;;;13.63;66.03;95279.91;5099247;28;20248;-76
2022/10/08 03:15:35;;;;;;;6.77;4.30;;;;;;;13.63;65.93;95274.75;5091565;28;20202;-77
2022/10/08 03:18:07;;;;;;;6.77;4.80;;;;;;;13.62;66.01;95284.22;5091789;28;20645;-78
2022/10/08 03:20:40;;;;;;;5.90;3.93;;;;;;;13.61;66.10;95274.09;5091311;28;20204;-77
2022/10/08 03:23:07;;;;;;;8.00;3.73;;;;;;;13.61;66.13;95281.81;5109281;28;20648;-77
2022/10/08 03:25:34;;;;;;;5.13;3.93;;;;;;;13.61;65.95;95284.38;5111166;28;20189;-78
2022/10/08 03:28:01;;;;;;;7.77;4.67;;;;;;;13.57;66.10;95278.72;5111593;28;20185;-77
2022/10/08 03:30:28;;;;;;;6.30;4.37;;;;;;;13.59;65.96;95274.22;5111152;28;20648;-77
2022/10/08 03:32:56;;;;;;;4.23;3.83;;;;;;;13.59;66.16;95273.41;5111281;28;20224;-75
2022/10/08 03:35:23;;;;;;;4.70;3.70;;;;;;;13.56;66.00;95279.66;5111144;28;20193;-76
2022/10/08 03:37:52;;;;;;;5.40;4.00;;;;;;;13.47;66.19;95263.34;5111489;28;20599;-78
2022/10/08 03:40:20;;;;;;;4.53;4.10;;;;;;;13.50;65.93;95269.94;5097256;28;20232;-78
2022/10/08 03:42:47;;;;;;;5.10;4.30;;;;;;;13.52;66.18;95271.44;5090883;28;20205;-76
2022/10/08 03:45:14;;;;;;;7.40;4.10;;;;;;;13.51;66.31;95267.25;5090744;28;20200;-78
2022/10/08 03:47:41;;;;;;;4.70;4.30;;;;;;;13.48;66.18;95264.94;5090744;28;20189;-79
2022/10/08 03:50:09;;;;;;;5.13;4.50;;;;;;;13.49;66.25;95261.41;5091416;28;20178;-78
2022/10/08 03:52:36;;;;;;;6.07;4.40;;;;;;;13.49;66.18;95273.47;5091282;28;20225;-77
2022/10/08 03:55:04;;;;;;;4.20;3.80;;;;;;;13.47;66.20;95271.03;5103337;28;20200;-77
2022/10/08 03:57:30;;;;;;;4.97;4.00;;;;;;;13.47;66.25;95270.22;5111279;28;20200;-77
2022/10/08 03:59:57;;;;;;;5.60;4.57;;;;;;;13.46;66.23;95271.16;5111276;28;20187;-76
2022/10/08 04:02:24;;;;;;;4.57;4.00;;;;;;;13.45;66.27;95274.69;5109798;28;20185;-76
2022/10/08 04:04:51;;;;;;;5.03;4.00;;;;;;;13.44;66.24;95273.88;5090948;28;20576;-77
2022/10/08 04:07:20;;;;;;;4.50;4.10;;;;;;;13.44;66.30;95276.47;5090480;28;20193;-78
2022/10/08 04:09:48;;;;;;;6.13;4.27;;;;;;;13.42;66.25;95269.81;5090640;28;20201;-78
2022/10/08 04:12:16;;;;;;;4.93;3.90;;;;;;;13.41;66.34;95266.44;5090277;28;20243;-78
2022/10/08 04:14:43;;;;;;;4.70;4.20;;;;;;;13.40;66.16;95262.28;5090520;28;20201;-77
2022/10/08 04:17:09;;;;;;;6.43;4.47;;;;;;;13.39;66.30;95268.38;5090773;28;20186;-78
2022/10/08 04:19:36;;;;;;;4.30;3.93;;;;;;;13.39;66.30;95265.00;5090420;28;20190;-79
2022/10/08 04:22:03;;;;;;;6.03;4.37;;;;;;;13.38;66.08;95271.06;5090575;28;20602;-78
2022/10/08 04:24:31;;;;;;;9.37;4.33;;;;;;;13.37;66.38;95267.69;5103740;28;20192;-79
2022/10/08 04:26:58;;;;;;;4.53;3.90;;;;;;;13.34;66.29;95262.81;5099099;28;20178;-78
2022/10/08 04:29:25;;;;;;;8.03;4.17;;;;;;;13.37;66.43;95272.00;5101156;28;20185;-79
2022/10/08 04:31:52;;;;;;;4.10;3.70;;;;;;;13.37;66.36;95269.44;5112691;28;20205;-79
2022/10/08 04:34:19;;;;;;;5.53;3.93;;;;;;;13.37;66.55;95275.38;5113984;28;20189;-78
2022/10/08 04:36:45;;;;;;;4.27;3.77;;;;;;;13.25;66.47;95250.81;5111080;28;20639;-78
2022/10/08 04:39:15;;;;;;;5.00;4.07;;;;;;;13.36;66.41;95260.13;5097574;28;20194;-78
2022/10/08 04:41:43;;;;;;;6.73;4.30;;;;;;;13.37;66.46;95264.31;5090148;28;20316;-77
2022/10/08 04:44:10;;;;;;;7.97;4.30;;;;;;;13.37;66.21;95261.72;5090966;28;20189;-78
2022/10/08 04:46:37;;;;;;;5.27;3.77;;;;;;;13.38;66.29;95266.72;5090434;28;20192;-78
2022/10/08 04:49:03;;;;;;;7.03;3.93;;;;;;;13.39;66.43;95270.94;5090720;28;20189;-79
2022/10/08 04:51:30;;;;;;;7.13;3.97;;;;;;;13.38;66.38;95266.72;5090370;28;20193;-79
2022/10/08 04:53:58;;;;;;;6.77;3.90;;;;;;;13.37;66.33;95256.59;5089553;28;20316;-79
2022/10/08 04:56:28;;;;;;;6.10;4.13;;;;;;;13.46;66.25;95266.84;5089731;28;20186;-78
2022/10/08 04:58:57;;;;;;;7.43;4.67;;;;;;;13.50;66.28;95265.59;5089951;28;20190;-78
2022/10/08 05:01:26;;;;;;;5.23;4.37;;;;;;;13.53;66.10;95264.53;5090058;28;20645;-77
2022/10/08 05:03:57;;;;;;;7.00;4.57;;;;;;;13.61;66.00;95272.34;5090109;28;20200;-78
2022/10/08 05:06:29;;;;;;;7.30;4.60;;;;;;;13.64;66.16;95272.03;5090046;28;20186;-79
2022/10/08 05:08:58;;;;;;;6.50;4.83;;;;;;;13.58;66.01;95259.75;5103822;28;20224;-78
2022/10/08 05:11:27;;;;;;;4.53;4.07;;;;;;;13.61;66.07;95258.69;5114937;28;20200;-79
2022/10/08 05:13:58;;;;;;;7.60;4.50;;;;;;;13.68;66.11;95275.94;5121444;28;20315;-79
2022/10/08 05:16:26;;;;;;;8.07;4.63;;;;;;;13.69;65.91;95280.16;5116610;28;20197;-78
2022/10/08 05:18:53;;;;;;;5.67;4.27;;;;;;;13.71;66.18;95274.84;5114462;28;20243;-77
2022/10/08 05:21:24;;;;;;;6.07;4.60;;;;;;;13.69;66.23;95258.78;5113844;28;20644;-78
2022/10/08 05:23:54;;;;;;;10.27;4.53;;;;;;;13.79;65.94;95272.38;5113377;28;20189;-78
2022/10/08 05:26:24;;;;;;;8.10;4.50;;;;;;;13.91;65.99;95278.97;5113399;28;20716;-77
2022/10/08 05:28:54;;;;;;;6.20;4.60;;;;;;;14.12;65.24;95275.31;5113874;28;20655;-77
2022/10/08 05:31:24;;;;;;;8.87;4.83;;;;;;;14.46;65.54;95278.06;5112343;28;20612;-77
2022/10/08 05:33:51;;;;;;;6.23;4.17;;;;;;;14.87;66.29;95281.81;5113587;28;20235;-79
2022/10/08 05:36:20;;;;;;;7.83;4.60;;;;;;;15.40;66.75;95280.06;5114116;28;20189;-78
2022/10/08 05:38:48;;;;;;;5.63;4.47;;;;;;;16.01;66.80;95273.91;5114069;28;20189;-78
2022/10/08 05:41:17;;;;;;;11.43;5.33;;;;;;;16.68;66.45;95279.06;5111222;28;20221;-79
2022/10/08 05:43:46;;;;;;;5.77;4.63;;;;;;;17.39;65.36;95285.31;5099874;28;20745;-80
2022/10/08 05:46:13;;;;;;;6.07;4.60;;;;;;;18.13;64.43;95278.13;5118743;28;20193;-78
2022/10/08 05:48:43;;;;;;;6.13;4.60;;;;;;;18.89;63.05;95290.31;5103247;28;20186;-77
2022/10/08 05:51:12;;;;;;;8.73;4.47;;;;;;;19.64;64.88;95283.47;5094882;28;20694;-76
2022/10/08 05:53:41;;;;;;;8.97;5.07;;;;;;;20.33;66.37;95277.91;5094427;28;20221;-77
2022/10/08 05:56:11;;;;;;;10.70;5.30;;;;;;;20.85;67.45;95269.06;5093345;28;20186;-80
2022/10/08 05:58:39;;;;;;;12.07;5.70;;;;;;;21.48;66.43;95281.19;5092038;28;20932;-78
2022/10/08 06:01:08;;;;;;;13.68;5.22;;;;;;;21.99;64.62;95280.84;5093398;28;20186;-79
2022/10/08 06:03:36;;;;;;;9.80;5.07;;;;;;;22.42;62.96;95272.81;5075222;28;20610;-78
2022/10/08 06:06:09;;;;;;;15.93;4.97;;;;;;;22.89;61.53;95286.75;5103160;28;20193;-79
2022/10/08 06:08:40;;;;;;;7.13;4.88;;;;;;;23.31;60.26;95278.72;5113641;28;20220;-83
2022/10/08 06:11:08;;;;;;;12.60;4.70;;;;;;;23.65;58.69;95273.28;5104983;28;20205;-78
2022/10/08 06:13:36;;;;;;;17.75;4.90;;;;;;;24.04;56.84;95274.16;5109759;28;20212;-79
2022/10/08 06:16:12;;;;;;;11.85;5.15;;;;;;;24.56;55.11;95284.63;5112917;28;20634;-80
2022/10/08 06:18:41;;;;;;;11.20;4.70;;;;;;;25.15;53.83;95276.38;5113261;28;20209;-77
2022/10/08 06:21:11;;;;;;;7.95;4.93;;;;;;;25.92;52.32;95282.13;5111945;28;20196;-80
2022/10/08 06:23:39;;;;;;;12.70;4.70;;;;;;;26.61;50.57;95287.97;5103262;28;20190;-78
2022/10/08 06:26:10;;;;;;;7.25;4.60;;;;;;;27.29;49.10;95284.16;5108101;28;20280;-84
2022/10/08 06:28:39;;;;;;;10.40;5.28;;;;;;;27.98;48.07;95292.25;5111441;28;20200;-80
2022/10/08 06:31:11;;;;;;;8.93;4.88;;;;;;;28.63;46.92;95291.97;5112000;28;20278;-84
2022/10/08 06:33:38;;;;;;;7.70;6.03;;;;;;;29.21;45.75;95288.22;5112899;28;20200;-83
2022/10/08 06:36:06;;;;;;;9.80;5.70;;;;;;;29.76;44.79;95288.53;5100093;28;20194;-83
2022/10/08 06:38:37;;;;;;;9.00;6.07;;;;;;;30.14;44.00;95263.91;5095785;28;20201;-88
2022/10/08 06:41:05;;;;;;;9.60;5.72;;;;;;;30.82;43.01;95286.34;5101620;28;20220;-84
2022/10/08 06:43:31;;;;;;;14.93;5.38;;;;;;;31.29;41.59;95292.84;5119592;28;20195;-83
2022/10/08 06:45:59;;;;;;;9.73;5.53;;;;;;;31.71;41.29;95296.31;5113711;28;20558;-85
2022/10/08 06:48:27;;;;;;;11.82;5.57;;;;;;;32.11;40.22;95294.94;5114981;28;20189;-84
2022/10/08 06:50:59;;;;;;;8.60;4.85;;;;;;;32.45;39.93;95282.13;5096426;28;20609;-79
2022/10/08 06:53:26;;;;;;;9.63;5.35;;;;;;;32.82;39.08;95286.44;5092288;28;20249;-80
2022/10/08 06:55:57;;;;;;;9.95;5.18;;;;;;;33.15;38.63;95285.16;5101282;28;20212;-79
2022/10/08 06:58:25;;;;;;;8.82;5.45;;;;;;;33.30;38.19;95260.50;5112875;28;20196;-83
2022/10/08 07:01:01;;;;;;;10.80;5.97;;;;;;;33.45;37.41;95243.78;5112168;28;20250;-84
2022/10/08 07:03:28;;;;;;;7.60;5.13;;;;;;;34.01;37.13;95294.09;5111729;28;20185;-83
2022/10/08 07:05:55;;;;;;;6.05;5.05;;;;;;;34.24;36.49;95294.53;5114591;28;20185;-85
2022/10/08 07:08:22;;;;;;;7.55;4.88;;;;;;;34.40;36.07;95282.78;5113922;28;20181;-83
2022/10/08 07:10:50;;;;;;;6.60;4.78;;;;;;;34.59;36.00;95285.66;5115002;28;20185;-83
2022/10/08 07:13:18;;;;;;;8.88;5.15;;;;;;;34.84;35.63;95293.44;5119026;28;20209;-83
2022/10/08 07:15:45;;;;;;;9.57;4.70;;;;;;;34.73;35.34;95248.63;5124113;28;20213;-85
2022/10/08 07:18:12;;;;;;;7.53;5.03;;;;;;;35.16;35.02;95292.97;5116070;28;20200;-85
2022/10/08 07:20:39;;;;;;;9.50;4.50;;;;;;;35.30;34.75;95295.00;5116172;28;20196;-85
2022/10/08 07:23:09;;;;;;;7.25;4.35;;;;;;;35.36;34.51;95285.88;5117679;28;20195;-84
2022/10/08 07:25:36;;;;;;;6.00;4.30;;;;;;;35.54;34.34;95297.75;5117382;28;20185;-85
2022/10/08 07:28:03;;;;;;;5.43;4.35;;;;;;;35.58;34.09;95288.94;5118385;28;20546;-84
2022/10/08 07:30:34;;;;;;;8.13;4.80;;;;;;;35.69;34.00;95292.25;5121523;28;20694;-84
2022/10/08 07:33:01;;;;;;;9.23;4.30;;;;;;;35.55;34.01;95259.41;5122296;28;20254;-83
2022/10/08 07:35:32;;;;;;;7.20;4.03;;;;;;;35.78;33.71;95293.22;5126698;28;20188;-83
2022/10/08 07:38:02;;;;;;;13.25;4.45;;;;;;;35.79;33.59;95288.69;5125169;28;20200;-84
2022/10/08 07:40:29;;;;;;;9.23;4.60;;;;;;;35.86;33.22;95291.81;5124849;28;20288;-83
2022/10/08 07:42:59;;;;;;;9.00;4.75;;;;;;;35.87;33.14;95282.75;5125786;28;20681;-84
2022/10/08 07:45:27;;;;;;;7.28;4.90;;;;;;;35.90;33.02;95288.31;5117424;28;20667;-84
2022/10/08 07:47:58;;;;;;;5.82;4.45;;;;;;;35.90;32.96;95288.31;5118784;28;20203;-82
2022/10/08 07:50:27;;;;;;;6.45;4.80;;;;;;;35.88;32.83;95287.81;5120157;28;20210;-83
2022/10/08 07:52:54;;;;;;;6.90;4.43;;;;;;;35.86;32.82;95286.50;5114033;28;20277;-84
2022/10/08 07:55:21;;;;;;;4.45;3.95;;;;;;;35.80;32.72;95280.44;5112437;28;20192;-84
2022/10/08 07:57:48;;;;;;;6.38;4.63;;;;;;;35.69;32.38;95263.78;5112235;28;20565;-83
2022/10/08 08:00:15;;;;;;;9.20;4.30;;;;;;;35.70;32.59;95272.56;5111979;28;20193;-84
2022/10/08 08:02:42;;;;;;;8.40;4.90;;;;;;;35.70;32.54;95280.53;5112029;28;20647;-85
2022/10/08 08:05:15;;;;;;;9.82;4.72;;;;;;;35.51;32.51;95261.06;5111740;28;20687;-84
2022/10/08 08:07:44;;;;;;;7.25;4.93;;;;;;;35.58;32.66;95272.13;5111104;28;20271;-83
2022/10/08 08:10:11;;;;;;;4.80;4.13;;;;;;;35.49;32.62;95258.66;5111972;28;20212;-83
2022/10/08 08:12:40;;;;;;;8.50;4.80;;;;;;;35.50;32.73;95273.56;5111544;28;20188;-84
2022/10/08 08:15:08;;;;;;;7.28;4.85;;;;;;;35.32;32.83;95258.25;5111820;28;20279;-84
2022/10/08 08:17:35;;;;;;;8.70;4.55;;;;;;;35.26;33.01;95262.84;5111303;28;20192;-83
2022/10/08 08:20:02;;;;;;;5.32;4.70;;;;;;;35.13;33.08;95258.16;5111237;28;20189;-83
2022/10/08 08:22:43;;;;;;;9.43;4.72;;;;;;;34.96;33.23;95258.53;5111286;28;20632;-84
2022/10/08 08:25:10;;;;;;;6.45;4.50;;;;;;;34.67;33.20;95231.91;5111697;28;20196;-85
2022/10/08 08:27:37;;;;;;;8.93;4.38;;;;;;;34.68;33.24;95249.44;5110888;28;20202;-85
2022/10/08 08:30:08;;;;;;;7.38;4.95;;;;;;;34.56;33.49;95249.78;5111491;28;20200;-85
2022/10/08 08:32:35;;;;;;;9.88;5.55;;;;;;;34.44;33.56;95258.03;5111114;28;20195;-86
2022/10/08 08:35:09;;;;;;;6.70;5.15;;;;;;;34.29;33.70;95252.03;5110592;28;20212;-83
2022/10/08 08:37:44;;;;;;;6.53;4.97;;;;;;;33.94;33.77;95230.66;5110776;28;20180;-84
2022/10/08 08:43:00;;;;;;;7.55;5.15;;;;;;;33.75;34.09;95250.88;4990522;28;20241;-86
2022/10/08 08:45:39;;;;;;;6.45;4.38;;;;;;;33.14;34.09;95176.75;4991702;28;20200;-83
2022/10/08 08:48:20;;;;;;;7.30;4.63;;;;;;;33.40;34.01;95244.56;4989105;28;20208;-85
2022/10/08 08:50:53;;;;;;;6.28;4.47;;;;;;;33.18;34.27;95239.56;4989355;28;20193;-84
2022/10/08 08:53:22;;;;;;;9.95;4.40;;;;;;;32.81;34.56;95217.81;4989245;28;20224;-85
2022/10/08 08:55:53;;;;;;;4.85;4.18;;;;;;;32.74;34.46;95236.63;4988654;28;20220;-86
2022/10/08 08:58:33;;;;;;;6.22;4.68;;;;;;;32.52;34.67;95226.28;4988942;28;20212;-85
2022/10/08 09:01:13;;;;;;;7.07;4.35;;;;;;;32.28;34.91;95231.22;5057800;28;20623;-84
2022/10/08 09:03:43;;;;;;;4.13;3.72;;;;;;;32.05;35.17;95236.97;5111372;28;20180;-83
2022/10/08 09:06:21;;;;;;;5.55;4.53;;;;;;;31.78;34.96;95229.13;5116933;28;20211;-84
2022/10/08 09:08:54;;;;;;;6.18;4.38;;;;;;;31.45;35.03;95225.81;5120713;28;20196;-84
2022/10/08 09:14:22;;;;;;;7.43;4.68;;;;;;;30.97;35.29;95223.09;5122881;28;20724;-84
2022/10/08 09:16:52;;;;;;;7.53;4.07;;;;;;;30.71;35.71;95208.84;5117600;28;20196;-84
2022/10/08 09:19:23;;;;;;;5.28;4.30;;;;;;;30.56;35.73;95216.63;5115191;28;20280;-85
2022/10/08 09:21:52;;;;;;;4.63;3.90;;;;;;;30.32;35.63;95202.16;5113458;28;20185;-85
2022/10/08 09:24:22;;;;;;;4.47;3.70;;;;;;;29.79;36.04;95154.31;5112602;28;20193;-86
2022/10/08 09:26:49;;;;;;;6.90;4.10;;;;;;;29.98;36.04;95208.34;5114200;28;20717;-84
2022/10/08 09:29:33;;;;;;;5.45;4.03;;;;;;;29.78;35.77;95212.59;5117046;28;20178;-84
2022/10/08 09:32:00;;;;;;;5.15;4.15;;;;;;;29.58;35.99;95202.56;5115457;28;20652;-82
2022/10/08 09:34:27;;;;;;;5.07;3.83;;;;;;;29.39;36.27;95204.69;5115777;28;20255;-83
2022/10/08 09:37:10;;;;;;;4.28;3.70;;;;;;;29.20;36.55;95207.59;5114406;28;20188;-83
2022/10/08 09:40:22;;;;;;;5.05;3.55;;;;;;;28.99;36.61;95189.88;5112118;28;20575;-85
2022/10/08 09:43:13;;;;;;;4.88;4.07;;;;;;;28.78;36.74;95191.38;4989071;28;20227;-85
2022/10/08 09:45:54;;;;;;;5.88;3.80;;;;;;;28.57;36.58;95179.72;4990953;28;20193;-82
2022/10/08 09:48:29;;;;;;;5.72;3.65;;;;;;;28.38;36.73;95179.16;4989372;28;20287;-85
2022/10/08 09:51:02;;;;;;;4.60;4.03;;;;;;;28.10;36.91;95143.09;4989955;28;20192;-84
2022/10/08 09:53:41;;;;;;;5.47;3.50;;;;;;;28.16;36.93;95179.00;4989716;28;20196;-84
2022/10/08 09:56:16;;;;;;;3.95;3.58;;;;;;;27.76;37.50;95134.31;4991556;28;20361;-83
2022/10/08 09:58:54;;;;;;;3.97;3.53;;;;;;;27.89;37.33;95172.69;4991912;28;20181;-84
2022/10/08 10:01:24;;;;;;;6.32;3.55;;;;;;;27.74;37.61;95168.72;4995198;28;20204;-83
2022/10/08 10:03:55;;;;;;;4.63;4.07;;;;;;;27.65;37.20;95170.09;5007963;28;20189;-84
2022/10/08 10:06:27;;;;;;;4.43;3.40;;;;;;;27.50;37.64;95156.63;5013338;28;20181;-84
2022/10/08 10:09:02;;;;;;;7.82;3.88;;;;;;;27.43;37.41;95158.63;5004665;28;20268;-84
2022/10/08 10:11:36;;;;;;;5.88;3.75;;;;;;;27.33;37.70;95161.84;4998967;28;20231;-84
2022/10/08 10:14:12;;;;;;;6.00;3.50;;;;;;;27.24;37.69;95158.72;4998298;28;20258;-85
2022/10/08 10:16:42;;;;;;;3.95;3.50;;;;;;;27.15;37.90;95157.50;5002228;28;20189;-84
2022/10/08 10:19:20;;;;;;;3.45;3.15;;;;;;;27.07;38.12;95143.88;5008234;28;20206;-84
2022/10/08 10:21:56;;;;;;;6.03;3.80;;;;;;;26.94;38.27;95129.16;5054324;28;20182;-84
2022/10/08 10:24:47;;;;;;;3.92;3.63;;;;;;;26.93;38.15;95140.69;5055216;28;20179;-85
2022/10/08 10:27:23;;;;;;;4.32;3.88;;;;;;;26.85;37.98;95133.97;5054202;28;20195;-84
2022/10/08 10:29:59;;;;;;;4.07;3.53;;;;;;;26.79;38.14;95134.09;5054012;28;20556;-86
2022/10/08 10:32:52;;;;;;;3.97;3.15;;;;;;;26.69;38.26;95138.06;5054147;28;20210;-84
2022/10/08 10:35:25;;;;;;;3.30;3.10;;;;;;;26.61;38.24;95132.38;5053615;28;20215;-86
2022/10/08 10:37:58;;;;;;;3.55;3.25;;;;;;;26.32;38.55;95089.41;5052773;28;20191;-85
2022/10/08 10:40:36;;;;;;;4.10;3.70;;;;;;;26.49;38.21;95127.88;5061621;28;20225;-85
2022/10/08 10:43:32;;;;;;;3.80;3.40;;;;;;;26.41;38.44;95116.91;5093175;28;20213;-84
2022/10/08 10:46:12;;;;;;;4.50;3.17;;;;;;;26.16;38.49;95089.03;5090577;28;20208;-84
2022/10/08 10:48:39;;;;;;;5.68;3.53;;;;;;;26.30;38.32;95110.63;5092392;28;20203;-84
2022/10/08 10:51:37;;;;;;;4.43;4.03;;;;;;;26.25;38.44;95110.47;5093060;28;20208;-85
2022/10/08 10:54:18;;;;;;;6.53;3.80;;;;;;;26.19;38.54;95098.28;5092185;28;20727;-85
2022/10/08 10:56:52;;;;;;;5.78;3.88;;;;;;;26.15;38.71;95099.75;5092135;28;20193;-85
2022/10/08 10:59:36;;;;;;;3.30;3.00;;;;;;;26.11;38.53;95094.16;5093790;28;20190;-84
2022/10/08 11:02:17;;;;;;;5.05;3.40;;;;;;;26.05;38.76;95087.19;5092035;28;20269;-84
2022/10/08 11:04:53;;;;;;;5.90;3.35;;;;;;;26.00;38.95;95087.88;5093108;28;20641;-85
2022/10/08 11:07:48;;;;;;;3.47;2.88;;;;;;;25.95;38.86;95079.06;5092953;28;20316;-84
2022/10/08 11:10:29;;;;;;;3.33;3.00;;;;;;;25.76;38.91;95052.09;5092468;28;20208;-85
2022/10/08 11:13:08;;;;;;;3.50;3.20;;;;;;;25.67;38.88;95037.72;5096550;28;20186;-85
2022/10/08 11:15:44;;;;;;;5.45;3.53;;;;;;;25.77;38.77;95065.00;5105315;28;20712;-85
2022/10/08 11:18:23;;;;;;;3.38;3.08;;;;;;;25.69;39.08;95041.72;5094791;28;20739;-85
2022/10/08 11:21:09;;;;;;;4.55;3.28;;;;;;;25.67;39.05;95046.38;5092984;28;20272;-85
2022/10/08 11:23:56;;;;;;;3.05;2.70;;;;;;;25.72;39.00;95064.03;5099337;28;20727;-84
2022/10/08 11:26:30;;;;;;;5.25;3.00;;;;;;;25.69;39.35;95056.63;5092890;28;20201;-85
2022/10/08 11:29:08;;;;;;;3.63;3.20;;;;;;;25.65;39.38;95047.63;5095191;28;20213;-85
2022/10/08 11:31:43;;;;;;;3.40;3.03;;;;;;;25.56;39.30;95038.47;5092507;28;20641;-82
2022/10/08 11:34:26;;;;;;;4.90;3.10;;;;;;;25.56;39.27;95046.31;5091943;28;20243;-84
2022/10/08 11:37:06;;;;;;;3.83;3.53;;;;;;;25.52;39.23;95049.41;5091936;28;20552;-83
2022/10/08 11:39:43;;;;;;;3.20;2.90;;;;;;;25.48;39.44;95039.59;5093192;28;20668;-84
2022/10/08 11:42:22;;;;;;;3.15;2.85;;;;;;;25.36;39.36;95025.66;5092715;28;20307;-84
2022/10/08 11:44:49;;;;;;;3.33;3.03;;;;;;;25.27;39.17;95012.06;5091256;28;20189;-85
2022/10/08 11:47:47;;;;;;;5.25;2.90;;;;;;;25.37;39.48;95030.66;5091436;28;20566;-85
2022/10/08 11:50:24;;;;;;;3.55;3.28;;;;;;;25.32;39.76;95024.50;5091291;28;20192;-83
2022/10/08 11:52:52;;;;;;;3.22;3.00;;;;;;;25.08;39.54;94994.75;5091463;28;20193;-84
2022/10/08 11:55:24;;;;;;;4.40;2.80;;;;;;;25.24;39.57;95015.91;5090734;28;20724;-84
2022/10/08 11:57:57;;;;;;;4.20;3.20;;;;;;;25.15;39.67;95013.81;5091209;28;20302;-84